Time;durP1;ratioP1;P1;durP2;ratioP2;P2;SDS_P1;SDS_P2;PMS_P1;PMS_P2;Temp;Humidity;BMP_temperature;BMP_pressure;BME280_temperature;BME280_humidity;BME280_pressure;Samples;Min_cycle;Max_cycle;Signal;HPM_P1;HPM_P2
2022/12/11 00:01:21;;;;;;;94.05;34.15;;;;;;;;;;5081799;28;20031;-73
2022/12/11 00:03:48;;;;;;;91.95;36.50;;;;;;;;;;5110932;28;20485;-74
2022/12/11 00:06:15;;;;;;;75.63;35.10;;;;;;;;;;5108834;28;20036;-74
2022/12/11 00:08:41;;;;;;;79.60;34.10;;;;;;;;;;5113487;28;20036;-73
2022/12/11 00:11:08;;;;;;;83.95;33.88;;;;;;;;;;5110364;28;20501;-74
2022/12/11 00:13:34;;;;;;;86.63;35.05;;;;;;;;;;5092649;28;20051;-74
2022/12/11 00:16:00;;;;;;;77.25;34.15;;;;;;;;;;5096985;28;20087;-74
2022/12/11 00:18:27;;;;;;;80.95;32.60;;;;;;;;;;5114955;27;20038;-74
2022/12/11 00:20:53;;;;;;;90.55;37.92;;;;;;;;;;5096683;28;20528;-74
2022/12/11 00:23:19;;;;;;;79.15;35.55;;;;;;;;;;5111705;28;20047;-74
2022/12/11 00:25:46;;;;;;;78.90;30.95;;;;;;;;;;5098699;27;20039;-74
2022/12/11 00:28:14;;;;;;;74.70;33.28;;;;;;;;;;5112589;27;20035;-74
2022/12/11 00:30:41;;;;;;;82.53;37.80;;;;;;;;;;5116833;27;20114;-74
2022/12/11 00:33:07;;;;;;;63.35;31.42;;;;;;;;;;5118357;27;20039;-74
2022/12/11 00:35:33;;;;;;;67.10;32.42;;;;;;;;;;5094991;27;20039;-74
2022/12/11 00:37:59;;;;;;;75.53;32.35;;;;;;;;;;5110107;27;20493;-75
2022/12/11 00:40:25;;;;;;;71.32;31.10;;;;;;;;;;5094736;28;20065;-75
2022/12/11 00:42:51;;;;;;;71.50;30.17;;;;;;;;;;5117115;27;20035;-75
2022/12/11 00:45:17;;;;;;;67.18;32.35;;;;;;;;;;5108040;27;20042;-75
2022/12/11 00:47:44;;;;;;;67.85;31.90;;;;;;;;;;5108005;27;20040;-75
2022/12/11 00:50:11;;;;;;;73.50;29.70;;;;;;;;;;5123939;27;20517;-75
2022/12/11 00:52:37;;;;;;;72.15;33.08;;;;;;;;;;5095721;28;20062;-75
2022/12/11 00:55:04;;;;;;;71.30;31.20;;;;;;;;;;5109264;27;20509;-75
2022/12/11 00:57:30;;;;;;;63.85;29.80;;;;;;;;;;5116093;27;20027;-75
2022/12/11 00:59:56;;;;;;;64.90;30.52;;;;;;;;;;5114084;27;20419;-74
2022/12/11 01:02:22;;;;;;;59.63;30.17;;;;;;;;;;5113673;27;20085;-75
2022/12/11 01:04:48;;;;;;;58.70;29.15;;;;;;;;;;5097348;28;20488;-75
2022/12/11 01:07:14;;;;;;;61.17;30.42;;;;;;;;;;5113420;27;20134;-75
2022/12/11 01:12:27;;;;;;;71.72;28.98;;;;;;;;;;5114734;27;20525;-75
2022/12/11 01:14:53;;;;;;;73.53;29.90;;;;;;;;;;5108426;27;20088;-75
2022/12/11 01:17:20;;;;;;;59.05;28.73;;;;;;;;;;5094890;28;20104;-75
2022/12/11 01:19:46;;;;;;;56.20;27.35;;;;;;;;;;5111132;28;20043;-75
2022/12/11 01:22:12;;;;;;;73.40;33.45;;;;;;;;;;5111512;27;20443;-75
2022/12/11 01:24:38;;;;;;;62.17;29.77;;;;;;;;;;5111975;27;20039;-74
2022/12/11 01:27:05;;;;;;;65.50;30.38;;;;;;;;;;5126324;27;20507;-75
2022/12/11 01:29:31;;;;;;;89.85;31.67;;;;;;;;;;5100252;28;20043;-74
2022/12/11 01:31:57;;;;;;;57.10;29.98;;;;;;;;;;5114487;27;20039;-75
2022/12/11 01:34:23;;;;;;;57.35;26.98;;;;;;;;;;5106978;27;20515;-75
2022/12/11 01:36:51;;;;;;;69.05;31.17;;;;;;;;;;5110918;27;20062;-74
2022/12/11 01:39:17;;;;;;;69.40;30.85;;;;;;;;;;5109518;27;20079;-75
2022/12/11 01:41:43;;;;;;;72.32;28.30;;;;;;;;;;5124941;27;20118;-75
2022/12/11 01:44:16;;;;;;;52.35;28.45;;;;;;;;;;5089347;28;20040;-75
2022/12/11 01:46:42;;;;;;;55.58;29.63;;;;;;;;;;5107450;27;20112;-74
2022/12/11 01:49:11;;;;;;;66.50;31.80;;;;;;;;;;5113110;27;20050;-75
2022/12/11 01:51:44;;;;;;;61.92;27.55;;;;;;;;;;5109324;27;20031;-75
2022/12/11 01:54:10;;;;;;;;;;;;;;;;;;5108328;27;20048;-75
2022/12/11 01:56:37;;;;;;;65.72;26.85;;;;;;;;;;5110917;27;20399;-75
2022/12/11 01:59:06;;;;;;;60.78;28.58;;;;;;;;;;5108458;27;20039;-75
2022/12/11 02:01:39;;;;;;;65.72;29.58;;;;;;;;;;5110917;27;20509;-75
2022/12/11 02:04:05;;;;;;;;;;;;;;;;;;5111292;27;20485;-75
2022/12/11 02:06:32;;;;;;;81.47;30.80;;;;;;;;;;5110060;27;19915;-75
2022/12/11 02:08:59;;;;;;;65.25;30.42;;;;;;;;;;5111628;27;20035;-74
2022/12/11 02:11:29;;;;;;;72.00;31.33;;;;;;;;;;5106207;28;20035;-75
2022/12/11 02:14:27;;;;;;;72.25;31.70;;;;;;;;;;5105193;27;20039;-76
2022/12/11 02:17:00;;;;;;;62.58;29.40;;;;;;;;;;5073682;28;20126;-75
2022/12/11 02:19:32;;;;;;;63.85;31.55;;;;;;;;;;5110123;27;20039;-75
2022/12/11 02:22:01;;;;;;;85.35;29.67;;;;;;;;;;5114400;27;20378;-75
2022/12/11 02:24:27;;;;;;;78.93;30.88;;;;;;;;;;5105550;27;20040;-75
2022/12/11 02:27:00;;;;;;;70.20;30.83;;;;;;;;;;5113646;27;20476;-76
2022/12/11 02:29:46;;;;;;;69.50;33.15;;;;;;;;;;5108783;27;20043;-75
2022/12/11 02:32:18;;;;;;;76.45;31.92;;;;;;;;;;5108338;28;20187;-76
2022/12/11 02:35:05;;;;;;;75.20;31.20;;;;;;;;;;5089993;28;20032;-75
2022/12/11 02:37:32;;;;;;;57.92;29.23;;;;;;;;;;5091334;28;20448;-75
2022/12/11 02:39:58;;;;;;;71.68;30.85;;;;;;;;;;5089482;28;20486;-75
2022/12/11 02:42:26;;;;;;;68.38;31.42;;;;;;;;;;5090384;28;20039;-75
2022/12/11 02:44:55;;;;;;;73.93;30.45;;;;;;;;;;5105368;27;20035;-75
2022/12/11 02:47:21;;;;;;;72.38;32.03;;;;;;;;;;5088410;28;20061;-76
2022/12/11 02:49:49;;;;;;;71.65;34.95;;;;;;;;;;5097854;28;20079;-76
2022/12/11 02:52:17;;;;;;;69.90;30.52;;;;;;;;;;5092892;28;20071;-75
2022/12/11 02:54:44;;;;;;;95.13;36.17;;;;;;;;;;5073663;28;20052;-76
2022/12/11 02:57:19;;;;;;;74.30;30.67;;;;;;;;;;5079326;28;20028;-75
2022/12/11 02:59:46;;;;;;;74.10;31.95;;;;;;;;;;5084239;28;20108;-76
2022/12/11 03:02:12;;;;;;;85.93;35.92;;;;;;;;;;5086067;28;20039;-76
2022/12/11 03:04:40;;;;;;;83.82;34.33;;;;;;;;;;5091898;28;20044;-75
2022/12/11 03:07:12;;;;;;;84.50;34.80;;;;;;;;;;5087895;28;20076;-75
2022/12/11 03:09:41;;;;;;;81.35;38.22;;;;;;;;;;5093846;28;20036;-76
2022/12/11 03:12:09;;;;;;;71.13;33.38;;;;;;;;;;5085955;28;20098;-76
2022/12/11 03:14:36;;;;;;;76.40;34.70;;;;;;;;;;5086518;28;20603;-75
2022/12/11 03:17:14;;;;;;;88.93;35.35;;;;;;;;;;5068160;28;20062;-75
2022/12/11 03:19:44;;;;;;;82.82;34.58;;;;;;;;;;5064655;28;20048;-76
2022/12/11 03:22:11;;;;;;;67.60;32.50;;;;;;;;;;5075921;28;20067;-75
2022/12/11 03:24:38;;;;;;;78.00;32.63;;;;;;;;;;5087987;28;20043;-75
2022/12/11 03:27:14;;;;;;;81.75;35.63;;;;;;;;;;5105587;28;20051;-75
2022/12/11 03:29:43;;;;;;;79.63;36.25;;;;;;;;;;5071223;28;20127;-75
2022/12/11 03:32:14;;;;;;;74.80;32.03;;;;;;;;;;5090376;28;20047;-75
2022/12/11 03:34:40;;;;;;;74.95;35.20;;;;;;;;;;5087079;28;20382;-75
2022/12/11 03:37:07;;;;;;;60.28;29.75;;;;;;;;;;5087619;28;20036;-75
2022/12/11 03:39:36;;;;;;;73.93;34.08;;;;;;;;;;5067006;28;20040;-75
2022/12/11 03:42:03;;;;;;;76.28;34.28;;;;;;;;;;5089642;28;20495;-75
2022/12/11 03:44:31;;;;;;;81.45;34.58;;;;;;;;;;5095941;27;20071;-75
2022/12/11 03:46:59;;;;;;;75.30;34.03;;;;;;;;;;5093230;28;20032;-75
2022/12/11 03:49:27;;;;;;;76.63;33.90;;;;;;;;;;5093320;28;20031;-75
2022/12/11 03:51:55;;;;;;;88.93;37.20;;;;;;;;;;5096247;28;20040;-75
2022/12/11 03:54:22;;;;;;;90.80;35.95;;;;;;;;;;5077638;28;20052;-75
2022/12/11 03:56:50;;;;;;;77.03;34.40;;;;;;;;;;5093707;28;20444;-76
2022/12/11 03:59:17;;;;;;;77.97;35.13;;;;;;;;;;5087020;28;20031;-75
2022/12/11 04:01:43;;;;;;;96.25;37.50;;;;;;;;;;5090112;28;20040;-75
2022/12/11 04:04:09;;;;;;;86.68;34.55;;;;;;;;;;5092802;28;20127;-75
2022/12/11 04:06:35;;;;;;;73.47;34.75;;;;;;;;;;5093187;28;20632;-75
2022/12/11 04:09:01;;;;;;;81.53;37.17;;;;;;;;;;5092453;28;20044;-75
2022/12/11 04:11:33;;;;;;;86.25;34.95;;;;;;;;;;5104900;28;20066;-75
2022/12/11 04:16:45;;;;;;;69.80;32.10;;;;;;;;;;5088676;28;20036;-74
2022/12/11 04:24:40;;;;;;;78.30;35.85;;;;;;;;;;5084813;28;20051;-73
2022/12/11 04:27:07;;;;;;;71.45;35.55;;;;;;;;;;5102991;28;20513;-74
2022/12/11 04:29:33;;;;;;;71.50;33.65;;;;;;;;;;5072708;28;20087;-74
2022/12/11 04:31:59;;;;;;;63.63;30.67;;;;;;;;;;5084516;28;20275;-74
2022/12/11 04:34:25;;;;;;;79.63;33.85;;;;;;;;;;5089315;28;20040;-74
2022/12/11 04:36:51;;;;;;;80.18;34.88;;;;;;;;;;5084745;28;20036;-74
2022/12/11 04:39:17;;;;;;;69.30;32.03;;;;;;;;;;5085650;28;20121;-74
2022/12/11 04:41:43;;;;;;;100.63;34.28;;;;;;;;;;5085806;28;20676;-74
2022/12/11 04:44:10;;;;;;;65.65;33.15;;;;;;;;;;5081716;28;20102;-74
2022/12/11 04:46:36;;;;;;;81.10;35.85;;;;;;;;;;5089938;28;20194;-74
2022/12/11 04:49:02;;;;;;;76.43;33.55;;;;;;;;;;5086382;28;20043;-75
2022/12/11 04:51:28;;;;;;;85.88;33.80;;;;;;;;;;5084448;28;20074;-74
2022/12/11 04:53:54;;;;;;;73.88;32.58;;;;;;;;;;5092844;28;20524;-74
2022/12/11 04:56:21;;;;;;;73.60;34.63;;;;;;;;;;5088320;28;20127;-74
2022/12/11 04:58:47;;;;;;;77.53;32.88;;;;;;;;;;5086684;28;20047;-74
2022/12/11 05:01:18;;;;;;;75.38;33.63;;;;;;;;;;5070268;28;20123;-75
2022/12/11 05:03:44;;;;;;;79.05;35.97;;;;;;;;;;5091895;28;20059;-74
2022/12/11 05:06:11;;;;;;;72.90;31.48;;;;;;;;;;5100904;28;20070;-74
2022/12/11 05:08:39;;;;;;;71.95;31.02;;;;;;;;;;5073562;28;20071;-73
2022/12/11 05:11:06;;;;;;;70.32;33.85;;;;;;;;;;5086334;28;20490;-74
2022/12/11 05:13:33;;;;;;;74.00;31.55;;;;;;;;;;5087641;28;20036;-74
2022/12/11 05:15:59;;;;;;;76.90;34.95;;;;;;;;;;5083848;28;20035;-74
2022/12/11 05:18:25;;;;;;;77.50;33.55;;;;;;;;;;5075498;28;20036;-74
2022/12/11 05:20:55;;;;;;;78.75;31.15;;;;;;;;;;5080206;28;20051;-74
2022/12/11 05:23:22;;;;;;;73.80;32.17;;;;;;;;;;5084520;28;20051;-74
2022/12/11 05:26:14;;;;;;;70.35;31.95;;;;;;;;;;5093483;28;20451;-74
2022/12/11 05:28:41;;;;;;;58.03;30.15;;;;;;;;;;5085305;28;20044;-74
2022/12/11 05:31:08;;;;;;;67.63;33.35;;;;;;;;;;5090768;28;20033;-74
2022/12/11 05:33:34;;;;;;;69.25;33.83;;;;;;;;;;5084897;28;20119;-74
2022/12/11 05:36:00;;;;;;;64.03;31.48;;;;;;;;;;5087546;28;20113;-74
2022/12/11 05:38:27;;;;;;;70.13;32.88;;;;;;;;;;5095649;28;20086;-75
2022/12/11 05:40:57;;;;;;;67.45;29.40;;;;;;;;;;5089909;28;20119;-74
2022/12/11 05:43:23;;;;;;;67.78;30.15;;;;;;;;;;5078380;28;20036;-74
2022/12/11 05:45:49;;;;;;;69.45;32.80;;;;;;;;;;5079278;28;20037;-74
2022/12/11 05:48:15;;;;;;;67.55;30.63;;;;;;;;;;5086350;28;20540;-74
2022/12/11 05:50:41;;;;;;;61.55;31.13;;;;;;;;;;5087489;28;20024;-72
2022/12/11 05:53:07;;;;;;;66.82;29.88;;;;;;;;;;5086508;28;20047;-74
2022/12/11 05:55:34;;;;;;;64.78;30.17;;;;;;;;;;5090938;28;20493;-74
2022/12/11 05:58:00;;;;;;;64.57;27.55;;;;;;;;;;5087142;28;20040;-74
2022/12/11 06:00:26;;;;;;;69.40;29.38;;;;;;;;;;5089813;28;20646;-73
2022/12/11 06:02:52;;;;;;;61.15;28.58;;;;;;;;;;5088547;28;20032;-73
2022/12/11 06:05:18;;;;;;;65.50;27.08;;;;;;;;;;5088555;28;20044;-74
2022/12/11 06:07:44;;;;;;;74.93;29.30;;;;;;;;;;5073560;28;20528;-74
2022/12/11 06:10:10;;;;;;;67.82;29.33;;;;;;;;;;5075799;28;20042;-74
2022/12/11 06:12:37;;;;;;;57.67;27.20;;;;;;;;;;5073617;28;20051;-74
2022/12/11 06:15:04;;;;;;;71.60;30.63;;;;;;;;;;5088663;28;20079;-74
2022/12/11 06:17:30;;;;;;;60.88;27.08;;;;;;;;;;5092759;28;20040;-74
2022/12/11 06:19:56;;;;;;;60.72;27.05;;;;;;;;;;5083906;28;20040;-74
2022/12/11 06:22:22;;;;;;;62.28;30.02;;;;;;;;;;5071670;28;20042;-74
2022/12/11 06:24:48;;;;;;;64.57;28.25;;;;;;;;;;5090005;28;20039;-74
2022/12/11 06:27:14;;;;;;;64.10;27.30;;;;;;;;;;5075264;28;20375;-74
2022/12/11 06:29:40;;;;;;;53.80;23.90;;;;;;;;;;5091741;28;20118;-74
2022/12/11 06:32:07;;;;;;;62.08;28.30;;;;;;;;;;5074233;28;20047;-74
2022/12/11 06:34:33;;;;;;;60.03;28.10;;;;;;;;;;5075654;28;20040;-74
2022/12/11 06:36:59;;;;;;;58.00;26.55;;;;;;;;;;5083147;28;20068;-74
2022/12/11 06:39:25;;;;;;;54.10;27.02;;;;;;;;;;5082042;28;20498;-74
2022/12/11 06:41:51;;;;;;;55.85;25.17;;;;;;;;;;5096053;28;20482;-74
2022/12/11 06:44:17;;;;;;;67.80;30.50;;;;;;;;;;5086414;28;20040;-74
2022/12/11 06:46:43;;;;;;;57.97;28.70;;;;;;;;;;5086708;28;20069;-74
2022/12/11 06:49:09;;;;;;;56.80;27.52;;;;;;;;;;5078135;28;20474;-74
2022/12/11 06:51:35;;;;;;;53.50;26.58;;;;;;;;;;5085814;28;20105;-74
2022/12/11 06:54:02;;;;;;;54.72;26.67;;;;;;;;;;5061342;28;20523;-74
2022/12/11 06:56:28;;;;;;;50.35;27.58;;;;;;;;;;5095653;27;20047;-73
2022/12/11 06:58:55;;;;;;;63.25;27.38;;;;;;;;;;5037113;28;20040;-73
2022/12/11 07:01:26;;;;;;;70.18;29.45;;;;;;;;;;5068199;28;20580;-74
2022/12/11 07:03:53;;;;;;;56.90;28.42;;;;;;;;;;5081796;28;20074;-74
2022/12/11 07:06:19;;;;;;;59.65;28.08;;;;;;;;;;5088011;28;20074;-74
2022/12/11 07:08:45;;;;;;;55.10;27.38;;;;;;;;;;5081493;28;20542;-74
2022/12/11 07:11:13;;;;;;;58.33;28.13;;;;;;;;;;5081785;28;20036;-74
2022/12/11 07:13:40;;;;;;;69.20;29.42;;;;;;;;;;5076488;28;20123;-74
2022/12/11 07:16:09;;;;;;;66.07;28.20;;;;;;;;;;5076209;28;20051;-74
2022/12/11 07:18:39;;;;;;;54.00;26.10;;;;;;;;;;5084561;28;20044;-74
2022/12/11 07:21:05;;;;;;;56.85;28.08;;;;;;;;;;5099727;28;20649;-74
2022/12/11 07:23:33;;;;;;;65.35;28.17;;;;;;;;;;5084845;28;20036;-74
2022/12/11 07:25:59;;;;;;;56.50;27.88;;;;;;;;;;5081630;28;20156;-73
2022/12/11 07:28:25;;;;;;;56.45;28.00;;;;;;;;;;5084873;28;20082;-74
2022/12/11 07:30:51;;;;;;;57.88;29.00;;;;;;;;;;5078356;28;20035;-74
2022/12/11 07:33:17;;;;;;;63.67;29.05;;;;;;;;;;5077966;28;20443;-74
2022/12/11 07:35:43;;;;;;;56.75;29.85;;;;;;;;;;5082135;28;20500;-74
2022/12/11 07:38:09;;;;;;;67.45;33.20;;;;;;;;;;5068967;28;20033;-74
2022/12/11 07:40:36;;;;;;;57.85;28.75;;;;;;;;;;5080242;28;20438;-73
2022/12/11 07:43:02;;;;;;;68.28;28.90;;;;;;;;;;5084911;28;20123;-74
2022/12/11 07:45:28;;;;;;;58.35;26.90;;;;;;;;;;5083420;28;20040;-74
2022/12/11 07:47:54;;;;;;;70.22;28.40;;;;;;;;;;5094854;28;20466;-74
2022/12/11 07:50:20;;;;;;;69.15;30.13;;;;;;;;;;5095224;28;20086;-73
2022/12/11 07:52:46;;;;;;;67.15;30.88;;;;;;;;;;5060200;28;20046;-74
2022/12/11 07:55:13;;;;;;;61.13;28.33;;;;;;;;;;5082806;28;20051;-73
2022/12/11 07:57:39;;;;;;;55.30;28.33;;;;;;;;;;5087500;28;20067;-73
2022/12/11 08:00:06;;;;;;;70.18;31.92;;;;;;;;;;5082690;28;20040;-74
2022/12/11 08:02:32;;;;;;;65.13;28.75;;;;;;;;;;5071375;28;20084;-74
2022/12/11 08:04:58;;;;;;;65.88;32.70;;;;;;;;;;5084605;28;20472;-74
2022/12/11 08:07:24;;;;;;;69.53;30.70;;;;;;;;;;5085445;28;20489;-74
2022/12/11 08:09:50;;;;;;;73.18;32.33;;;;;;;;;;5084209;28;20040;-74
2022/12/11 08:12:17;;;;;;;60.78;29.85;;;;;;;;;;5087631;28;20079;-74
2022/12/11 08:14:43;;;;;;;68.43;31.73;;;;;;;;;;5086784;28;20124;-74
2022/12/11 08:17:09;;;;;;;75.30;31.65;;;;;;;;;;5083835;28;20132;-74
2022/12/11 08:19:35;;;;;;;72.82;32.95;;;;;;;;;;5085453;28;20035;-74
2022/12/11 08:22:01;;;;;;;70.95;32.67;;;;;;;;;;5087394;28;20036;-71
2022/12/11 08:24:27;;;;;;;69.72;32.67;;;;;;;;;;5085275;28;20097;-74
2022/12/11 08:26:53;;;;;;;63.58;29.80;;;;;;;;;;5085672;28;20552;-74
2022/12/11 08:29:20;;;;;;;64.60;31.17;;;;;;;;;;5087615;28;20066;-74
2022/12/11 08:31:46;;;;;;;91.18;34.85;;;;;;;;;;5073197;28;20055;-74
2022/12/11 08:34:12;;;;;;;69.60;31.60;;;;;;;;;;5083765;28;20158;-74
2022/12/11 08:36:39;;;;;;;62.25;30.13;;;;;;;;;;5065898;28;20581;-74
2022/12/11 08:39:05;;;;;;;64.03;29.20;;;;;;;;;;5054043;28;20405;-73
2022/12/11 08:41:31;;;;;;;73.55;32.35;;;;;;;;;;5066867;28;20498;-74
2022/12/11 08:43:59;;;;;;;70.43;31.67;;;;;;;;;;5104638;27;20044;-73
2022/12/11 08:46:26;;;;;;;65.82;32.95;;;;;;;;;;5088118;28;20159;-74
2022/12/11 08:48:54;;;;;;;73.50;31.90;;;;;;;;;;5085425;28;20040;-74
2022/12/11 08:51:21;;;;;;;65.90;31.58;;;;;;;;;;5083938;28;20044;-74
2022/12/11 08:53:48;;;;;;;62.42;32.33;;;;;;;;;;5092847;27;20057;-73
2022/12/11 08:56:18;;;;;;;64.25;32.75;;;;;;;;;;5088707;28;20052;-74
2022/12/11 08:58:45;;;;;;;64.72;30.20;;;;;;;;;;5087521;28;20425;-74
2022/12/11 09:01:20;;;;;;;64.10;29.58;;;;;;;;;;5091675;28;20063;-73
2022/12/11 09:03:46;;;;;;;64.57;29.20;;;;;;;;;;5073170;28;20480;-73
2022/12/11 09:06:13;;;;;;;66.47;31.00;;;;;;;;;;5094018;28;20036;-74
2022/12/11 09:08:40;;;;;;;66.95;32.15;;;;;;;;;;5096336;28;20027;-74
2022/12/11 09:11:07;;;;;;;68.00;31.67;;;;;;;;;;5091384;28;20515;-74
2022/12/11 09:13:34;;;;;;;71.40;32.88;;;;;;;;;;5077715;28;20044;-74
2022/12/11 09:16:00;;;;;;;74.63;33.33;;;;;;;;;;5092467;28;20051;-73
2022/12/11 09:18:26;;;;;;;56.25;29.63;;;;;;;;;;5107155;27;20034;-74
2022/12/11 09:21:02;;;;;;;66.20;32.83;;;;;;;;;;5091065;28;20039;-73
2022/12/11 09:23:28;;;;;;;62.35;29.52;;;;;;;;;;5090929;28;20027;-74
2022/12/11 09:25:55;;;;;;;75.55;31.83;;;;;;;;;;5089417;28;20036;-73
2022/12/11 09:28:21;;;;;;;67.28;33.05;;;;;;;;;;5077156;28;20343;-74
2022/12/11 09:30:47;;;;;;;65.85;32.63;;;;;;;;;;5076767;28;20032;-75
2022/12/11 09:33:13;;;;;;;71.60;33.17;;;;;;;;;;5085554;28;20038;-74
2022/12/11 09:35:39;;;;;;;69.60;32.25;;;;;;;;;;5069484;28;20044;-74
2022/12/11 09:38:05;;;;;;;69.45;31.55;;;;;;;;;;5093302;28;20474;-74
2022/12/11 09:40:32;;;;;;;59.50;30.10;;;;;;;;;;5068459;28;20124;-75
2022/12/11 09:43:03;;;;;;;70.40;31.05;;;;;;;;;;5066239;28;20036;-73
2022/12/11 09:45:29;;;;;;;67.07;29.75;;;;;;;;;;5097037;28;20048;-74
2022/12/11 09:47:56;;;;;;;57.63;27.77;;;;;;;;;;5106248;27;20481;-73
2022/12/11 09:50:26;;;;;;;69.22;32.00;;;;;;;;;;5089659;28;21302;-74
2022/12/11 09:52:56;;;;;;;53.40;28.35;;;;;;;;;;5088148;28;20457;-74
2022/12/11 09:55:23;;;;;;;58.00;31.20;;;;;;;;;;5090020;28;20044;-74
2022/12/11 09:57:52;;;;;;;64.00;31.58;;;;;;;;;;5089437;28;20421;-73
2022/12/11 10:00:21;;;;;;;57.28;29.90;;;;;;;;;;5082429;28;20044;-74
2022/12/11 10:02:47;;;;;;;61.50;32.83;;;;;;;;;;5089629;28;20032;-74
2022/12/11 10:05:13;;;;;;;62.13;29.83;;;;;;;;;;5104320;27;20148;-74
2022/12/11 10:07:48;;;;;;;68.78;29.48;;;;;;;;;;5091451;28;20050;-74
2022/12/11 10:10:14;;;;;;;63.05;28.52;;;;;;;;;;5086124;28;20581;-74
2022/12/11 10:13:16;;;;;;;57.55;27.75;;;;;;;;;;5084648;28;20509;-74
2022/12/11 10:15:46;;;;;;;50.30;28.02;;;;;;;;;;5007954;28;20041;-73
2022/12/11 10:18:16;;;;;;;59.53;28.83;;;;;;;;;;5076063;28;20520;-73
2022/12/11 10:20:44;;;;;;;51.72;28.13;;;;;;;;;;5089383;28;20404;-74
2022/12/11 10:23:16;;;;;;;56.58;27.25;;;;;;;;;;5083937;28;20040;-73
2022/12/11 10:25:49;;;;;;;58.72;27.58;;;;;;;;;;5085489;28;20055;-74
2022/12/11 10:28:17;;;;;;;62.25;31.15;;;;;;;;;;5089270;28;20309;-73
2022/12/11 10:30:46;;;;;;;57.58;28.70;;;;;;;;;;5090637;28;20412;-74
2022/12/11 10:33:12;;;;;;;59.05;27.35;;;;;;;;;;5055358;28;20512;-74
2022/12/11 10:35:47;;;;;;;53.92;26.23;;;;;;;;;;5082098;28;20072;-74
2022/12/11 10:38:20;;;;;;;52.50;27.48;;;;;;;;;;5062847;28;20036;-73
2022/12/11 10:40:49;;;;;;;44.65;22.75;;;;;;;;;;5078913;28;20040;-74
2022/12/11 10:43:15;;;;;;;48.35;24.35;;;;;;;;;;5070406;28;20072;-74
2022/12/11 10:45:50;;;;;;;49.33;24.00;;;;;;;;;;5072859;28;20094;-73
2022/12/11 10:48:16;;;;;;;48.42;24.92;;;;;;;;;;5078602;28;20513;-74
2022/12/11 10:50:44;;;;;;;52.92;25.33;;;;;;;;;;5056343;28;20486;-73
2022/12/11 10:53:20;;;;;;;45.70;23.73;;;;;;;;;;5071909;28;20064;-73
2022/12/11 10:55:47;;;;;;;59.90;25.48;;;;;;;;;;5076247;28;20410;-73
2022/12/11 10:58:19;;;;;;;54.88;23.73;;;;;;;;;;5073984;28;20429;-73
2022/12/11 11:00:45;;;;;;;51.00;24.35;;;;;;;;;;5085346;28;20359;-74
2022/12/11 11:03:23;;;;;;;44.42;24.83;;;;;;;;;;5088178;28;20036;-73
2022/12/11 11:05:49;;;;;;;46.67;24.33;;;;;;;;;;5088832;28;20397;-73
2022/12/11 11:08:21;;;;;;;54.75;25.83;;;;;;;;;;5071343;28;20127;-73
2022/12/11 11:10:50;;;;;;;45.00;25.42;;;;;;;;;;5086169;28;20043;-73
2022/12/11 11:13:16;;;;;;;54.15;26.10;;;;;;;;;;5085715;28;20048;-73
2022/12/11 11:15:42;;;;;;;41.58;22.27;;;;;;;;;;5096224;28;20439;-73
2022/12/11 11:18:25;;;;;;;46.35;23.55;;;;;;;;;;5085887;28;20572;-74
2022/12/11 11:20:51;;;;;;;49.33;26.92;;;;;;;;;;5088544;28;20509;-73
2022/12/11 11:23:18;;;;;;;51.40;24.85;;;;;;;;;;5066807;28;20120;-73
2022/12/11 11:25:53;;;;;;;51.15;26.02;;;;;;;;;;5074821;28;20093;-73
2022/12/11 11:28:23;;;;;;;46.47;24.17;;;;;;;;;;5075274;28;20036;-74
2022/12/11 11:30:56;;;;;;;52.50;25.42;;;;;;;;;;5076534;28;20063;-75
2022/12/11 11:33:23;;;;;;;54.33;24.27;;;;;;;;;;5087100;28;20188;-74
2022/12/11 11:35:52;;;;;;;52.92;23.70;;;;;;;;;;5073219;28;20055;-74
2022/12/11 11:38:20;;;;;;;46.95;23.55;;;;;;;;;;5069052;28;20478;-74
2022/12/11 11:40:55;;;;;;;45.50;26.02;;;;;;;;;;5089649;28;20093;-74
2022/12/11 11:43:41;;;;;;;46.97;24.75;;;;;;;;;;5092630;28;20074;-73
2022/12/11 11:46:11;;;;;;;47.60;25.92;;;;;;;;;;5070685;28;20670;-73
2022/12/11 11:48:55;;;;;;;44.75;23.88;;;;;;;;;;5086719;28;20043;-74
2022/12/11 11:51:57;;;;;;;46.33;24.60;;;;;;;;;;5080060;28;20509;-73
2022/12/11 11:54:28;;;;;;;42.90;23.73;;;;;;;;;;5000447;28;20073;-73
2022/12/11 11:56:55;;;;;;;44.17;24.30;;;;;;;;;;5079392;28;20046;-73
2022/12/11 11:59:30;;;;;;;54.95;28.70;;;;;;;;;;5069660;28;20040;-73
2022/12/11 12:01:56;;;;;;;50.17;25.60;;;;;;;;;;5085890;28;20032;-73
2022/12/11 12:04:23;;;;;;;40.28;22.45;;;;;;;;;;5089633;28;20040;-74
2022/12/11 12:06:49;;;;;;;44.72;23.45;;;;;;;;;;5089842;28;20517;-73
2022/12/11 12:09:15;;;;;;;53.75;25.15;;;;;;;;;;5087841;28;20148;-74
2022/12/11 12:11:51;;;;;;;47.63;23.08;;;;;;;;;;5066245;28;20082;-75
2022/12/11 12:14:36;;;;;;;42.90;23.95;;;;;;;;;;5089154;28;20036;-74
2022/12/11 12:17:08;;;;;;;43.92;23.42;;;;;;;;;;5091565;28;20052;-74
2022/12/11 12:19:51;;;;;;;46.78;24.80;;;;;;;;;;5076201;28;20089;-74
2022/12/11 12:22:40;;;;;;;48.22;22.98;;;;;;;;;;5087669;28;20067;-74
2022/12/11 12:25:22;;;;;;;43.30;24.00;;;;;;;;;;5054820;28;20109;-74
2022/12/11 12:28:10;;;;;;;44.22;22.88;;;;;;;;;;5085290;28;20106;-74
2022/12/11 12:31:14;;;;;;;40.72;21.90;;;;;;;;;;5090160;28;20088;-75
2022/12/11 12:33:59;;;;;;;40.25;22.63;;;;;;;;;;5006225;28;20045;-74
2022/12/11 12:36:31;;;;;;;48.30;23.00;;;;;;;;;;5015828;28;20041;-74
2022/12/11 12:39:00;;;;;;;46.72;24.27;;;;;;;;;;5059330;28;20136;-74
2022/12/11 12:41:32;;;;;;;43.70;21.35;;;;;;;;;;5092348;28;20130;-74
2022/12/11 12:44:18;;;;;;;47.53;23.27;;;;;;;;;;5103068;28;20051;-74
2022/12/11 12:46:44;;;;;;;42.65;23.35;;;;;;;;;;5053474;28;20097;-74
2022/12/11 12:49:14;;;;;;;38.88;22.70;;;;;;;;;;5091646;28;20557;-74
2022/12/11 12:51:40;;;;;;;42.08;22.65;;;;;;;;;;5073108;28;20035;-74
2022/12/11 12:54:06;;;;;;;41.92;22.17;;;;;;;;;;5088610;28;20104;-74
2022/12/11 12:56:33;;;;;;;42.42;21.70;;;;;;;;;;5084490;28;20109;-72
2022/12/11 12:58:59;;;;;;;39.55;22.88;;;;;;;;;;5073480;28;20451;-73
2022/12/11 13:01:26;;;;;;;40.42;21.52;;;;;;;;;;5075138;28;20064;-74
2022/12/11 13:03:55;;;;;;;47.15;23.50;;;;;;;;;;5075148;28;20032;-74
2022/12/11 13:06:29;;;;;;;45.40;23.42;;;;;;;;;;5091239;28;20187;-75
2022/12/11 13:08:56;;;;;;;38.60;21.08;;;;;;;;;;5089322;28;20036;-74
2022/12/11 13:11:30;;;;;;;39.67;22.70;;;;;;;;;;5083868;28;20491;-74
2022/12/11 13:14:15;;;;;;;40.00;21.58;;;;;;;;;;5080407;28;20063;-73
2022/12/11 13:16:42;;;;;;;34.45;22.13;;;;;;;;;;5069176;28;20084;-74
2022/12/11 13:19:17;;;;;;;41.70;24.05;;;;;;;;;;5074363;28;20047;-73
2022/12/11 13:21:54;;;;;;;41.42;22.92;;;;;;;;;;5091929;28;20028;-74
2022/12/11 13:24:20;;;;;;;46.58;23.15;;;;;;;;;;5087562;28;20040;-74
2022/12/11 13:26:47;;;;;;;40.67;21.90;;;;;;;;;;5090676;28;20136;-74
2022/12/11 13:29:32;;;;;;;36.00;20.80;;;;;;;;;;5058926;28;20040;-74
2022/12/11 13:32:05;;;;;;;40.72;20.48;;;;;;;;;;5104196;27;20131;-75
2022/12/11 13:34:32;;;;;;;;;;;;;;;;;;5093646;28;20119;-74
2022/12/11 13:36:58;;;;;;;37.92;21.20;;;;;;;;;;5091582;28;20038;-74
2022/12/11 13:39:30;;;;;;;40.97;22.55;;;;;;;;;;5102008;27;20039;-74
2022/12/11 13:42:06;;;;;;;38.67;20.85;;;;;;;;;;5073212;28;20124;-74
2022/12/11 13:44:38;;;;;;;38.67;21.33;;;;;;;;;;5096275;28;20040;-74
2022/12/11 13:47:06;;;;;;;37.37;20.63;;;;;;;;;;5087192;28;20040;-74
2022/12/11 13:49:37;;;;;;;41.42;20.55;;;;;;;;;;5086643;28;20052;-74
2022/12/11 13:52:04;;;;;;;35.17;19.70;;;;;;;;;;5073617;28;20044;-74
2022/12/11 13:54:31;;;;;;;37.80;21.02;;;;;;;;;;5088781;28;20047;-74
2022/12/11 13:56:59;;;;;;;33.97;19.20;;;;;;;;;;5090856;28;20524;-74
2022/12/11 13:59:31;;;;;;;38.15;21.65;;;;;;;;;;5091583;28;20063;-73
2022/12/11 14:01:59;;;;;;;38.30;20.35;;;;;;;;;;5079684;28;20081;-74
2022/12/11 14:04:27;;;;;;;37.20;17.55;;;;;;;;;;5066792;28;20501;-74
2022/12/11 14:06:53;;;;;;;36.67;19.85;;;;;;;;;;5097143;28;20047;-74
2022/12/11 14:09:22;;;;;;;33.33;19.73;;;;;;;;;;5087367;28;20087;-74
2022/12/11 14:11:49;;;;;;;39.95;19.35;;;;;;;;;;5091317;28;20040;-74
2022/12/11 14:14:18;;;;;;;31.75;16.98;;;;;;;;;;5067663;28;20047;-75
2022/12/11 14:16:46;;;;;;;37.03;18.90;;;;;;;;;;5080893;28;20036;-74
2022/12/11 14:19:14;;;;;;;38.40;20.13;;;;;;;;;;5081829;28;20044;-75
2022/12/11 14:21:40;;;;;;;35.67;19.33;;;;;;;;;;5070111;28;20122;-74
2022/12/11 14:24:12;;;;;;;36.55;18.05;;;;;;;;;;5099218;27;20046;-73
2022/12/11 14:26:39;;;;;;;32.33;18.02;;;;;;;;;;5086429;28;20044;-74
2022/12/11 14:29:06;;;;;;;32.88;16.88;;;;;;;;;;5080710;28;20040;-74
2022/12/11 14:31:32;;;;;;;32.65;19.58;;;;;;;;;;5084718;28;20031;-74
2022/12/11 14:34:01;;;;;;;33.53;16.58;;;;;;;;;;5081355;28;20043;-73
2022/12/11 14:36:28;;;;;;;34.58;17.70;;;;;;;;;;5089317;28;20036;-74
2022/12/11 14:38:54;;;;;;;36.30;17.45;;;;;;;;;;5083265;28;20456;-74